Dades meteomassalio
Diari Summary for Gener 14, 2017 Units:  English    Metric   Both
« Previous Day
Next Day »
Diari Semanal Mensual Anual Personalitzat
  Maxima: Minima: Mijana:
Temperatura: 46.9 °F 37.8 °F 41.2 °F
Rosada: 34.3 °F 30.2 °F 32.7 °F
Humitat: 81 % 53 % 72 %
Velocitat del vent: 35.7 mph 5.8 mph 19.9 mph
Racha vent: 35.7 mph - -
Vent:- - NW
Pressio: 30.3 in 30.2 in -
Pluja: 0 in    
Historical Graphs
 
 
Tabular Data for Gener 14, 2017
Time Temperature Dew Point Pressure Wind Wind Speed Wind Gust Humidity Rainfall Rate (Hourly) solar Conditions
00:02 39.4 °F 33.6 °F 30.3 in WNW 12.7 mph 12.7 mph 80 % 0 in 0.0 W/m2 CLR
00:07 39.2 °F 33.4 °F 30.3 in NW 13.8 mph 13.8 mph 80 % 0 in 0.0 W/m2 CLR
00:12 39 °F 33.4 °F 30.2 in NW 12.7 mph 12.7 mph 80 % 0 in 0.0 W/m2 CLR
00:17 39.2 °F 33.4 °F 30.2 in NW 15 mph 15 mph 80 % 0 in 0.0 W/m2 CLR
00:22 39.2 °F 33.4 °F 30.2 in NW 13.8 mph 13.8 mph 80 % 0 in 0.0 W/m2 CLR
00:27 39 °F 33.4 °F 30.2 in WNW 11.5 mph 11.5 mph 80 % 0 in 0.0 W/m2 CLR
00:32 39.2 °F 33.4 °F 30.2 in WNW 12.7 mph 12.7 mph 80 % 0 in 0.0 W/m2 CLR
00:37 39.2 °F 33.4 °F 30.2 in WNW 13.8 mph 13.8 mph 80 % 0 in 0.0 W/m2 CLR
00:42 39.2 °F 33.4 °F 30.2 in NW 11.5 mph 11.5 mph 80 % 0 in 0.0 W/m2 CLR
00:47 39.4 °F 33.6 °F 30.2 in NW 16.1 mph 16.1 mph 80 % 0 in 0.0 W/m2 CLR
00:52 39.4 °F 33.6 °F 30.2 in NW 12.7 mph 12.7 mph 80 % 0 in 0.0 W/m2 CLR
00:57 39.4 °F 33.6 °F 30.3 in NW 13.8 mph 13.8 mph 80 % 0 in 0.0 W/m2 CLR
01:02 39.2 °F 33.4 °F 30.2 in NW 13.8 mph 13.8 mph 80 % 0 in 0.0 W/m2 CLR
01:07 39 °F 33.4 °F 30.2 in NW 12.7 mph 12.8 mph 80 % 0 in 0.0 W/m2 CLR
01:12 39 °F 33.4 °F 30.2 in NW 11.5 mph 11.5 mph 80 % 0 in 0.0 W/m2 CLR
01:17 39 °F 33.6 °F 30.3 in NW 15 mph 15 mph 81 % 0 in 0.0 W/m2 CLR
01:22 39.2 °F 34 °F 30.3 in NW 15 mph 15 mph 81 % 0 in 0.0 W/m2 CLR
01:27 39.2 °F 33.4 °F 30.3 in WNW 11.5 mph 12.1 mph 80 % 0 in 0.0 W/m2 CLR
01:32 39.2 °F 33.4 °F 30.3 in WNW 15 mph 15 mph 80 % 0 in 0.0 W/m2 CLR
01:37 39 °F 33.4 °F 30.3 in NW 11.5 mph 11.5 mph 80 % 0 in 0.0 W/m2 CLR
01:42 39.2 °F 33.4 °F 30.3 in NW 11.5 mph 11.5 mph 80 % 0 in 0.0 W/m2 CLR
01:47 39.2 °F 33.4 °F 30.3 in NW 12 mph 12 mph 80 % 0 in 0.0 W/m2 CLR
01:52 39.2 °F 33.4 °F 30.3 in NW 15 mph 15 mph 80 % 0 in 0.0 W/m2 CLR
01:57 39.2 °F 33.4 °F 30.3 in NNW 11.5 mph 11.5 mph 80 % 0 in 0.0 W/m2 CLR
02:02 39.2 °F 33.4 °F 30.3 in NNW 11.5 mph 11.5 mph 80 % 0 in 0.0 W/m2 CLR
02:07 39 °F 33.4 °F 30.3 in NW 8.1 mph 8.1 mph 80 % 0 in 0.0 W/m2 CLR
02:12 39 °F 33.6 °F 30.3 in NW 12.7 mph 12.7 mph 81 % 0 in 0.0 W/m2 CLR
02:17 39 °F 33.6 °F 30.3 in NW 12.7 mph 12.7 mph 81 % 0 in 0.0 W/m2 CLR
02:22 38.8 °F 33.6 °F 30.3 in NW 10 mph 10 mph 81 % 0 in 0.0 W/m2 CLR
02:27 38.8 °F 33.6 °F 30.3 in NW 12.7 mph 12.7 mph 81 % 0 in 0.0 W/m2 CLR
02:32 38.8 °F 33.4 °F 30.3 in NW 16.1 mph 16.1 mph 81 % 0 in 0.0 W/m2 CLR
02:37 38.7 °F 33.4 °F 30.3 in NW 9.2 mph 9.2 mph 81 % 0 in 0.0 W/m2 CLR
02:42 38.7 °F 33.4 °F 30.3 in NW 10.4 mph 10.4 mph 81 % 0 in 0.0 W/m2 CLR
02:47 38.7 °F 33.4 °F 30.3 in NW 11.5 mph 11.5 mph 81 % 0 in 0.0 W/m2 CLR
02:52 38.7 °F 33.3 °F 30.3 in NW 11 mph 11 mph 81 % 0 in 0.0 W/m2 CLR
02:57 38.7 °F 33.4 °F 30.3 in NW 8.1 mph 8.1 mph 81 % 0 in 0.0 W/m2 CLR
03:02 38.5 °F 33.3 °F 30.3 in NW 12 mph 12 mph 81 % 0 in 0.0 W/m2 CLR
03:07 38.7 °F 33.4 °F 30.3 in NW 8.1 mph 8.1 mph 81 % 0 in 0.0 W/m2 CLR
03:12 38.8 °F 33.6 °F 30.3 in NW 11.5 mph 11.5 mph 81 % 0 in 0.0 W/m2 CLR
03:17 38.8 °F 33.3 °F 30.3 in WNW 12 mph 12 mph 80 % 0 in 0.0 W/m2 CLR
03:22 38.8 °F 33.3 °F 30.3 in WNW 11.5 mph 11.5 mph 80 % 0 in 0.0 W/m2 CLR
03:27 38.7 °F 33.1 °F 30.3 in WNW 10.4 mph 10.4 mph 80 % 0 in 0.0 W/m2 CLR
03:32 38.5 °F 33.3 °F 30.3 in NW 13.8 mph 13.8 mph 81 % 0 in 0.0 W/m2 CLR
03:37 38.5 °F 33.3 °F 30.3 in NW 12.7 mph 12.7 mph 81 % 0 in 0.0 W/m2 CLR
03:42 38.7 °F 33.4 °F 30.3 in NW 15 mph 15 mph 81 % 0 in 0.0 W/m2 CLR
03:47 38.7 °F 33.4 °F 30.3 in NW 11.5 mph 11.5 mph 81 % 0 in 0.0 W/m2 CLR
03:52 38.7 °F 33.3 °F 30.3 in NW 15 mph 15 mph 81 % 0 in 0.0 W/m2 CLR
03:57 38.5 °F 33.3 °F 30.3 in NW 11.5 mph 11.5 mph 81 % 0 in 0.0 W/m2 CLR
04:02 38.7 °F 33.4 °F 30.3 in NW 12.7 mph 12.7 mph 81 % 0 in 0.0 W/m2 CLR
04:08 38.7 °F 33.4 °F 30.3 in NW 12.7 mph 12.7 mph 81 % 0 in 0.0 W/m2 CLR
04:13 38.8 °F 33.3 °F 30.3 in NW 11.5 mph 11.5 mph 80 % 0 in 0.0 W/m2 CLR
04:18 38.7 °F 33.3 °F 30.3 in NW 10.4 mph 10.4 mph 81 % 0 in 0.0 W/m2 CLR
04:23 38.7 °F 33.3 °F 30.3 in NW 11.5 mph 11.5 mph 81 % 0 in 0.0 W/m2 CLR
04:28 38.5 °F 33.3 °F 30.3 in NW 9.2 mph 9.2 mph 81 % 0 in 0.0 W/m2 CLR
04:33 38.5 °F 33.1 °F 30.3 in NW 5.8 mph 5.8 mph 81 % 0 in 0.0 W/m2 CLR
04:38 38.5 °F 33.1 °F 30.3 in NW 8 mph 8 mph 81 % 0 in 0.0 W/m2 CLR
04:43 38.5 °F 33.1 °F 30.3 in NNW 11.5 mph 11.5 mph 81 % 0 in 0.0 W/m2 CLR
04:48 38.5 °F 33.1 °F 30.3 in NW 10.4 mph 10.4 mph 81 % 0 in 0.0 W/m2 CLR
04:53 38.5 °F 33.1 °F 30.3 in NW 11.5 mph 11.5 mph 81 % 0 in 0.0 W/m2 CLR
04:58 38.5 °F 33.1 °F 30.3 in NW 13.8 mph 13.8 mph 81 % 0 in 0.0 W/m2 CLR
05:03 38.5 °F 33.3 °F 30.3 in NW 10.4 mph 10.4 mph 81 % 0 in 0.0 W/m2 CLR
05:08 38.5 °F 33.3 °F 30.3 in NW 9.2 mph 9.2 mph 81 % 0 in 0.0 W/m2 CLR
05:13 38.5 °F 32.9 °F 30.3 in NW 8.1 mph 8.1 mph 80 % 0 in 0.0 W/m2 CLR
05:18 38.5 °F 32.7 °F 30.3 in NW 8 mph 8 mph 80 % 0 in 0.0 W/m2 CLR
05:23 38.5 °F 32.7 °F 30.3 in WNW 9.2 mph 9.2 mph 80 % 0 in 0.0 W/m2 CLR
05:28 38.3 °F 32.7 °F 30.3 in WNW 5.8 mph 5.8 mph 80 % 0 in 0.0 W/m2 CLR
05:33 38.1 °F 32.5 °F 30.3 in NW 9.2 mph 9.2 mph 80 % 0 in 0.0 W/m2 CLR
05:38 38.1 °F 32.5 °F 30.3 in NW 13 mph 13 mph 80 % 0 in 0.0 W/m2 CLR
05:43 38.3 °F 32.7 °F 30.3 in NW 12.7 mph 12.7 mph 80 % 0 in 0.0 W/m2 CLR
05:48 38.1 °F 32.5 °F 30.3 in WNW 11.5 mph 11.5 mph 80 % 0 in 0.0 W/m2 CLR
05:53 38.1 °F 32.5 °F 30.3 in WNW 15 mph 15 mph 80 % 0 in 0.0 W/m2 CLR
05:58 38.5 °F 32.7 °F 30.3 in WNW 16.1 mph 16.1 mph 80 % 0 in 0.0 W/m2 CLR
06:03 38.5 °F 32.9 °F 30.3 in NW 18.4 mph 18.4 mph 80 % 0 in 0.0 W/m2 CLR
06:08 38.5 °F 32.9 °F 30.3 in NW 16.1 mph 16.1 mph 80 % 0 in 0.0 W/m2 CLR
06:13 38.5 °F 32.9 °F 30.3 in NW 15 mph 15 mph 80 % 0 in 0.0 W/m2 CLR
06:18 38.5 °F 32.5 °F 30.3 in NW 19.6 mph 19.6 mph 79 % 0 in 0.0 W/m2 CLR
06:23 38.5 °F 32.5 °F 30.3 in NW 13.8 mph 13.8 mph 79 % 0 in 0.0 W/m2 CLR
06:28 38.5 °F 32.9 °F 30.3 in NW 17 mph 17 mph 80 % 0 in 0.0 W/m2 CLR
06:33 38.5 °F 32.5 °F 30.3 in WNW 15 mph 15 mph 79 % 0 in 0.0 W/m2 CLR
06:38 38.5 °F 32.5 °F 30.3 in WNW 15 mph 15 mph 79 % 0 in 0.0 W/m2 CLR
06:43 38.3 °F 32.7 °F 30.3 in WNW 15 mph 15 mph 80 % 0 in 0.0 W/m2 CLR
06:48 38.3 °F 32.7 °F 30.3 in WNW 17.3 mph 17.3 mph 80 % 0 in 0.0 W/m2 CLR
06:53 38.3 °F 32.7 °F 30.3 in WNW 18.4 mph 18.4 mph 80 % 0 in 0.0 W/m2 CLR
06:58 38.1 °F 32.5 °F 30.3 in WNW 16.1 mph 16.1 mph 80 % 0 in 0.0 W/m2 CLR
07:03 37.9 °F 32.4 °F 30.3 in WNW 12.7 mph 12.7 mph 80 % 0 in 0.0 W/m2 CLR
07:08 37.9 °F 32.4 °F 30.3 in WNW 16.1 mph 16.1 mph 80 % 0 in 0.0 W/m2 CLR
07:13 37.9 °F 32.4 °F 30.3 in WNW 13.8 mph 13.8 mph 80 % 0 in 0.0 W/m2 CLR
07:18 37.9 °F 32.4 °F 30.3 in NW 16.1 mph 16.1 mph 80 % 0 in 0.0 W/m2 CLR
07:23 37.9 °F 32.4 °F 30.3 in NW 16.1 mph 16.1 mph 80 % 0 in 0.0 W/m2 CLR
07:28 37.8 °F 31.8 °F 30.3 in NW 15 mph 15 mph 79 % 0 in 0.0 W/m2 CLR
07:33 37.9 °F 32.2 °F 30.3 in NW 17.3 mph 17.3 mph 79 % 0 in 0.0 W/m2 CLR
07:38 38.3 °F 32.4 °F 30.3 in NNW 17.3 mph 17.3 mph 79 % 0 in 0.0 W/m2 CLR
07:43 38.1 °F 32.4 °F 30.3 in NNW 13.8 mph 13.8 mph 79 % 0 in 0.0 W/m2 CLR
07:48 38.1 °F 32.2 °F 30.3 in NNW 15 mph 15 mph 79 % 0 in 0.0 W/m2 CLR
07:53 38.1 °F 32.2 °F 30.3 in NW 12 mph 12 mph 79 % 0 in 0.0 W/m2 CLR
07:58 37.9 °F 32.2 °F 30.3 in NW 12.7 mph 12.7 mph 79 % 0 in 0.0 W/m2 CLR
08:03 38.3 °F 32.4 °F 30.3 in NNW 17.3 mph 17.3 mph 79 % 0 in 0.0 W/m2 CLR
08:08 38.5 °F 32.5 °F 30.3 in NW 15 mph 15 mph 79 % 0 in 0.0 W/m2 CLR
08:13 38.7 °F 32.5 °F 30.3 in NW 18.4 mph 18.4 mph 79 % 0 in 0.0 W/m2 CLR
08:18 38.7 °F 32.4 °F 30.3 in NW 25 mph 25 mph 78 % 0 in 0.0 W/m2 CLR
08:23 38.8 °F 32.5 °F 30.3 in NW 19.6 mph 19.6 mph 78 % 0 in 5.0 W/m2 OVC
08:28 38.7 °F 32.7 °F 30.3 in NW 20.7 mph 20.7 mph 79 % 0 in 5.0 W/m2 BKN
08:33 38.5 °F 32.5 °F 30.3 in NW 14 mph 14 mph 79 % 0 in 7.0 W/m2 BKN
08:38 38.5 °F 32.5 °F 30.3 in WNW 17.3 mph 17.3 mph 79 % 0 in 11.0 W/m2 BKN
08:43 38.5 °F 32.5 °F 30.3 in WNW 20.7 mph 20.7 mph 79 % 0 in 14.0 W/m2 BKN
08:48 38.5 °F 32.5 °F 30.3 in NW 15 mph 15 mph 79 % 0 in 16.0 W/m2 BKN
08:53 38.5 °F 32.5 °F 30.3 in NW 15 mph 15 mph 79 % 0 in 16.0 W/m2 BKN
08:58 38.7 °F 32.5 °F 30.3 in WNW 18.4 mph 18.4 mph 79 % 0 in 21.0 W/m2 BKN
09:03 38.7 °F 32.7 °F 30.3 in WNW 16.1 mph 16.1 mph 79 % 0 in 26.0 W/m2 BKN
09:08 38.7 °F 32.7 °F 30.3 in WNW 19.6 mph 19.6 mph 79 % 0 in 26.0 W/m2 BKN
09:13 38.8 °F 32.9 °F 30.3 in WNW 20.7 mph 20.7 mph 79 % 0 in 28.0 W/m2 BKN
09:18 39 °F 33.1 °F 30.3 in WNW 23 mph 23 mph 79 % 0 in 26.0 W/m2 BKN
09:23 39 °F 33.1 °F 30.3 in WNW 13.8 mph 13.8 mph 79 % 0 in 35.0 W/m2 BKN
09:29 39.4 °F 33.1 °F 30.3 in WNW 16.1 mph 16.1 mph 78 % 0 in 97.0 W/m2 BKN
09:34 39.7 °F 33.4 °F 30.3 in WNW 28 mph 28 mph 78 % 0 in 113.0 W/m2 BKN
09:39 39.9 °F 33.4 °F 30.3 in WNW 20.7 mph 20.7 mph 77 % 0 in 84.0 W/m2 BKN
09:44 40.1 °F 33.4 °F 30.3 in NW 23 mph 23 mph 77 % 0 in 163.0 W/m2 BKN
09:49 40.3 °F 33.6 °F 30.3 in NW 15 mph 15 mph 77 % 0 in 148.0 W/m2 BKN
09:54 40.3 °F 33.6 °F 30.3 in NW 18.4 mph 18.4 mph 77 % 0 in 116.0 W/m2 BKN
09:59 40.5 °F 34 °F 30.3 in WNW 15 mph 15 mph 77 % 0 in 165.0 W/m2 BKN
10:04 40.6 °F 33.6 °F 30.3 in NW 20.7 mph 20.7 mph 76 % 0 in 98.0 W/m2 BKN
10:14 40.8 °F 34 °F 30.3 in NW 18.4 mph 18.4 mph 76 % 0 in 186.0 W/m2 BKN
10:19 41 °F 33.6 °F 30.3 in NW 21.9 mph 21.9 mph 75 % 0 in 237.0 W/m2 SCT
10:24 41.2 °F 34 °F 30.3 in NW 24.2 mph 24.2 mph 75 % 0 in 251.0 W/m2 SCT
10:29 41.4 °F 34 °F 30.3 in NW 24.2 mph 24.2 mph 75 % 0 in 264.0 W/m2 SCT
10:34 41.5 °F 34.3 °F 30.3 in NW 17.3 mph 17.3 mph 75 % 0 in 279.0 W/m2 SCT
10:39 41.9 °F 34.2 °F 30.3 in NW 23 mph 23 mph 74 % 0 in 292.0 W/m2 SCT
10:44 42.1 °F 34.2 °F 30.3 in NW 19.6 mph 19.6 mph 73 % 0 in 302.0 W/m2 SCT
10:49 42.3 °F 34 °F 30.3 in NW 26.5 mph 26.5 mph 72 % 0 in 313.0 W/m2 FEW
10:54 42.4 °F 34.2 °F 30.3 in NW 19.6 mph 19.6 mph 72 % 0 in 322.0 W/m2 FEW
10:59 42.6 °F 34 °F 30.3 in NW 24.2 mph 24.2 mph 71 % 0 in 334.0 W/m2 FEW
11:04 43 °F 34.2 °F 30.3 in NW 20 mph 20 mph 71 % 0 in 345.0 W/m2 FEW
11:09 43.2 °F 33.6 °F 30.3 in NNW 21.9 mph 21.9 mph 69 % 0 in 357.0 W/m2 FEW
11:14 43.3 °F 33.4 °F 30.3 in NNW 19.6 mph 19.6 mph 68 % 0 in 325.0 W/m2 FEW
11:19 43.5 °F 33.4 °F 30.3 in NW 21.9 mph 21.9 mph 67 % 0 in 380.0 W/m2 FEW
11:24 43.9 °F 33.6 °F 30.3 in NW 24.2 mph 24.2 mph 67 % 0 in 390.0 W/m2 FEW
11:29 44.2 °F 33.6 °F 30.3 in NNW 18.4 mph 18.6 mph 66 % 0 in 383.0 W/m2 FEW
11:34 44.2 °F 33.3 °F 30.3 in NNW 27.6 mph 27.6 mph 65 % 0 in 411.0 W/m2 FEW
11:39 44.4 °F 33.4 °F 30.3 in NW 23 mph 23 mph 65 % 0 in 401.0 W/m2 FEW
11:44 44.8 °F 33.6 °F 30.3 in NNW 28.8 mph 28.8 mph 65 % 0 in 406.0 W/m2 FEW
11:49 44.4 °F 33.4 °F 30.3 in NNW 34.5 mph 34.5 mph 65 % 0 in 406.0 W/m2 FEW
11:54 44.1 °F 33.4 °F 30.3 in NW 32.2 mph 32.2 mph 66 % 0 in 422.0 W/m2 CLR
11:59 44.2 °F 34 °F 30.3 in NW 23 mph 23 mph 67 % 0 in 431.0 W/m2 CLR
12:04 44.4 °F 33.6 °F 30.3 in NW 32.2 mph 32.2 mph 66 % 0 in 429.0 W/m2 CLR
12:09 44.4 °F 34.2 °F 30.3 in NW 23 mph 23 mph 67 % 0 in 432.0 W/m2 CLR
12:14 44.6 °F 33.6 °F 30.3 in NW 31.1 mph 31.1 mph 65 % 0 in 436.0 W/m2 CLR
12:19 44.6 °F 33.3 °F 30.3 in NW 34.5 mph 34.5 mph 64 % 0 in 441.0 W/m2 CLR
12:24 45 °F 33.1 °F 30.3 in NW 26.5 mph 26.5 mph 63 % 0 in 445.0 W/m2 CLR
12:29 45.1 °F 32.7 °F 30.3 in NW 31.1 mph 31.1 mph 62 % 0 in 450.0 W/m2 CLR
12:34 45.3 °F 32.7 °F 30.3 in NW 32 mph 32 mph 61 % 0 in 452.0 W/m2 CLR
12:39 45.3 °F 32.5 °F 30.3 in NNW 25.3 mph 25.3 mph 61 % 0 in 454.0 W/m2 CLR
12:44 45.3 °F 33.1 °F 30.3 in NNW 23 mph 23 mph 62 % 0 in 457.0 W/m2 CLR
12:49 45.7 °F 32.5 °F 30.3 in NW 27.6 mph 27.6 mph 60 % 0 in 459.0 W/m2 CLR
12:54 45.7 °F 32.5 °F 30.3 in NW 19.6 mph 19.6 mph 60 % 0 in 462.0 W/m2 CLR
12:59 45.7 °F 32.2 °F 30.3 in NNW 29.9 mph 29.9 mph 59 % 0 in 462.0 W/m2 CLR
13:04 45.7 °F 32.2 °F 30.3 in NNW 31.1 mph 31.1 mph 59 % 0 in 462.0 W/m2 CLR
13:09 45.7 °F 31.6 °F 30.3 in NNW 33.4 mph 33.4 mph 58 % 0 in 464.0 W/m2 CLR
13:14 46 °F 32.2 °F 30.3 in NNW 21.9 mph 21.9 mph 58 % 0 in 464.0 W/m2 CLR
13:19 46.4 °F 32 °F 30.3 in NNW 32.2 mph 32.2 mph 57 % 0 in 464.0 W/m2 CLR
13:24 46.4 °F 31.5 °F 30.3 in NNW 24.2 mph 24.2 mph 56 % 0 in 462.0 W/m2 CLR
13:29 46.8 °F 31.8 °F 30.3 in NNW 16.1 mph 16.1 mph 56 % 0 in 461.0 W/m2 CLR
13:34 46.9 °F 31.1 °F 30.3 in NNW 28.8 mph 28.8 mph 54 % 0 in 462.0 W/m2 CLR
13:39 46.2 °F 30.6 °F 30.3 in NNW 28.8 mph 28.8 mph 54 % 0 in 455.0 W/m2 CLR
13:44 46.2 °F 31.5 °F 30.3 in NNW 25.3 mph 25.3 mph 56 % 0 in 454.0 W/m2 CLR
13:49 46 °F 31.6 °F 30.3 in NNW 25 mph 25 mph 57 % 0 in 454.0 W/m2 CLR
13:54 46.2 °F 31.5 °F 30.3 in NNW 34.5 mph 34.5 mph 56 % 0 in 450.0 W/m2 CLR
13:59 46.2 °F 31.5 °F 30.3 in NNW 26.5 mph 26.5 mph 56 % 0 in 448.0 W/m2 CLR
14:04 46.6 °F 32.5 °F 30.3 in NNW 20 mph 20 mph 58 % 0 in 443.0 W/m2 CLR
14:09 46.6 °F 32.2 °F 30.3 in NNW 27.6 mph 27.6 mph 57 % 0 in 443.0 W/m2 CLR
14:14 46.2 °F 31.8 °F 30.3 in NNW 29.9 mph 29.9 mph 57 % 0 in 436.0 W/m2 CLR
14:19 46.6 °F 32.2 °F 30.3 in NNW 29.9 mph 29.9 mph 57 % 0 in 427.0 W/m2 CLR
14:24 46.6 °F 31.3 °F 30.3 in NNW 29.9 mph 29.9 mph 55 % 0 in 429.0 W/m2 CLR
14:29 46.6 °F 31.6 °F 30.3 in NNW 28.8 mph 28.8 mph 56 % 0 in 420.0 W/m2 CLR
14:34 46.2 °F 31.8 °F 30.3 in NNW 27.6 mph 27.6 mph 57 % 0 in 410.0 W/m2 CLR
14:39 46.4 °F 31.1 °F 30.3 in NNW 31.1 mph 31.1 mph 55 % 0 in 399.0 W/m2 CLR
14:44 46.2 °F 31.5 °F 30.3 in NW 35.7 mph 35.7 mph 56 % 0 in 394.0 W/m2 CLR
14:49 46.2 °F 31.8 °F 30.3 in NW 26.5 mph 26.5 mph 57 % 0 in 390.0 W/m2 CLR
14:54 46.6 °F 31.3 °F 30.3 in NNW 24 mph 24 mph 55 % 0 in 381.0 W/m2 CLR
14:59 46.8 °F 31.5 °F 30.3 in NNW 25.3 mph 25.3 mph 55 % 0 in 369.0 W/m2 CLR
15:04 46.6 °F 31.6 °F 30.3 in NW 26.5 mph 26.5 mph 56 % 0 in 364.0 W/m2 CLR
15:09 46.2 °F 31.8 °F 30.3 in NW 27 mph 27 mph 57 % 0 in 355.0 W/m2 CLR
15:14 46.4 °F 32 °F 30.3 in NW 27 mph 27 mph 57 % 0 in 350.0 W/m2 CLR
15:19 46.6 °F 32.2 °F 30.3 in NW 27 mph 27 mph 57 % 0 in 338.0 W/m2 CLR
15:24 46.4 °F 31.5 °F 30.3 in NNW 34.5 mph 34.5 mph 56 % 0 in 327.0 W/m2 CLR
15:29 46.6 °F 31.6 °F 30.3 in NW 26.5 mph 26.5 mph 56 % 0 in 318.0 W/m2 CLR
15:34 46.8 °F 31.8 °F 30.3 in NW 24.2 mph 24.2 mph 56 % 0 in 309.0 W/m2 CLR
15:39 46.6 °F 31.3 °F 30.3 in NW 26.5 mph 26.5 mph 55 % 0 in 297.0 W/m2 CLR
15:44 46.6 °F 30.7 °F 30.3 in NNW 29.9 mph 29.9 mph 54 % 0 in 292.0 W/m2 CLR
15:49 46.6 °F 30.4 °F 30.3 in NNW 28.8 mph 28.8 mph 53 % 0 in 276.0 W/m2 CLR
15:54 46.6 °F 30.7 °F 30.3 in NW 27 mph 27 mph 54 % 0 in 264.0 W/m2 CLR
15:59 46.6 °F 30.7 °F 30.3 in NW 26.5 mph 26.5 mph 54 % 0 in 246.0 W/m2 CLR
16:04 46.2 °F 30.6 °F 30.3 in NNW 24 mph 24 mph 54 % 0 in 234.0 W/m2 CLR
16:09 46.2 °F 30.6 °F 30.3 in NW 18.4 mph 18.4 mph 54 % 0 in 221.0 W/m2 CLR
16:14 46.2 °F 30.6 °F 30.3 in NNW 30 mph 30 mph 54 % 0 in 209.0 W/m2 CLR
16:20 46.2 °F 30.9 °F 30.3 in NNW 19.6 mph 19.6 mph 55 % 0 in 193.0 W/m2 CLR
16:25 46 °F 30.4 °F 30.3 in NW 33.4 mph 33.4 mph 54 % 0 in 174.0 W/m2 CLR
16:30 46 °F 30.7 °F 30.3 in NNW 25.3 mph 25.3 mph 55 % 0 in 163.0 W/m2 CLR
16:35 46 °F 31.3 °F 30.3 in NW 26.5 mph 26.5 mph 56 % 0 in 148.0 W/m2 CLR
16:40 45.7 °F 30.4 °F 30.3 in NW 28.8 mph 28.8 mph 55 % 0 in 134.0 W/m2 CLR
16:45 45.7 °F 30.4 °F 30.3 in NW 32.2 mph 32.2 mph 55 % 0 in 118.0 W/m2 CLR
16:50 45.3 °F 30.6 °F 30.3 in NNW 30 mph 30 mph 56 % 0 in 104.0 W/m2 CLR
16:55 45.3 °F 30.6 °F 30.3 in NNW 21.9 mph 21.9 mph 56 % 0 in 93.0 W/m2 CLR
17:00 45.1 °F 30.4 °F 30.3 in NNW 30 mph 30 mph 56 % 0 in 79.0 W/m2 CLR
17:05 45.1 °F 30.4 °F 30.3 in NNW 20.7 mph 20.7 mph 56 % 0 in 60.0 W/m2 CLR
17:10 45 °F 30.2 °F 30.3 in NNW 29.9 mph 29.9 mph 56 % 0 in 53.0 W/m2 OVC
17:15 44.8 °F 30.6 °F 30.3 in NNW 26.5 mph 26.5 mph 57 % 0 in 40.0 W/m2 OVC
17:20 44.8 °F 30.4 °F 30.3 in NW 28.8 mph 28.8 mph 57 % 0 in 33.0 W/m2 OVC
17:25 44.6 °F 30.4 °F 30.3 in NW 23 mph 23 mph 57 % 0 in 23.0 W/m2 OVC
17:30 44.4 °F 30.6 °F 30.3 in NW 19.6 mph 19.6 mph 58 % 0 in 14.0 W/m2 OVC
17:35 44.2 °F 30.4 °F 30.3 in NW 28.8 mph 28.8 mph 58 % 0 in 12.0 W/m2 OVC
17:40 44.1 °F 30.7 °F 30.3 in NW 24.2 mph 24.2 mph 59 % 0 in 11.0 W/m2 OVC
17:45 43.9 °F 31.6 °F 30.3 in NW 23 mph 23 mph 62 % 0 in 9.0 W/m2 OVC
17:50 43.5 °F 31.8 °F 30.3 in NW 26.5 mph 26.5 mph 63 % 0 in 5.0 W/m2 OVC
17:55 43.3 °F 31.6 °F 30.3 in NW 18.4 mph 18.4 mph 63 % 0 in 5.0 W/m2 OVC
18:00 43.2 °F 31.8 °F 30.3 in NW 23 mph 23 mph 64 % 0 in 0.0 W/m2 CLR
18:05 43.2 °F 31.6 °F 30.3 in NW 26 mph 26 mph 64 % 0 in 0.0 W/m2 CLR
18:10 43 °F 32 °F 30.3 in NW 24.2 mph 24.2 mph 65 % 0 in 0.0 W/m2 CLR
18:15 42.8 °F 31.8 °F 30.3 in NW 25.3 mph 25.3 mph 65 % 0 in 0.0 W/m2 CLR
18:20 42.6 °F 32 °F 30.3 in NW 28.8 mph 28.8 mph 66 % 0 in 0.0 W/m2 CLR
18:25 42.4 °F 32.4 °F 30.3 in NW 19.6 mph 19.6 mph 67 % 0 in 0.0 W/m2 CLR
18:30 42.3 °F 32.5 °F 30.3 in NW 20.7 mph 20.7 mph 68 % 0 in 0.0 W/m2 CLR
18:35 42.1 °F 32.7 °F 30.3 in NW 23 mph 23 mph 69 % 0 in 0.0 W/m2 CLR
18:40 41.9 °F 32.5 °F 30.3 in NW 17.3 mph 17.3 mph 69 % 0 in 0.0 W/m2 CLR
18:45 42.1 °F 32.5 °F 30.3 in NW 21.9 mph 21.9 mph 69 % 0 in 0.0 W/m2 CLR
18:50 41.9 °F 32.5 °F 30.3 in NW 19.6 mph 19.6 mph 69 % 0 in 0.0 W/m2 CLR
18:55 41.7 °F 32.4 °F 30.3 in NW 21.9 mph 21.9 mph 69 % 0 in 0.0 W/m2 CLR
19:00 41.7 °F 32.5 °F 30.3 in NW 24.2 mph 24.2 mph 70 % 0 in 0.0 W/m2 CLR
19:05 41.5 °F 32.5 °F 30.3 in NW 21.9 mph 21.9 mph 70 % 0 in 0.0 W/m2 CLR
19:10 41.5 °F 32.5 °F 30.3 in NW 20.7 mph 20.7 mph 70 % 0 in 0.0 W/m2 CLR
19:15 41.5 °F 32.7 °F 30.3 in NW 23 mph 23 mph 71 % 0 in 0.0 W/m2 CLR
19:20 41.5 °F 32.7 °F 30.3 in NW 24.2 mph 24.2 mph 71 % 0 in 0.0 W/m2 CLR
19:25 41.4 °F 33.1 °F 30.3 in NW 23 mph 23 mph 72 % 0 in 0.0 W/m2 CLR
19:30 41.4 °F 33.1 °F 30.3 in NW 19.6 mph 19.6 mph 72 % 0 in 0.0 W/m2 CLR
19:35 41.4 °F 33.3 °F 30.3 in NW 23 mph 23 mph 73 % 0 in 0.0 W/m2 CLR
19:40 41.2 °F 33.3 °F 30.3 in NW 21.9 mph 21.9 mph 73 % 0 in 0.0 W/m2 CLR
19:45 41.2 °F 33.1 °F 30.3 in NW 26.5 mph 26.5 mph 73 % 0 in 0.0 W/m2 CLR
19:50 41.2 °F 33.4 °F 30.3 in NW 26.5 mph 26.5 mph 74 % 0 in 0.0 W/m2 CLR
19:55 41 °F 33.3 °F 30.3 in NW 24.2 mph 24.2 mph 74 % 0 in 0.0 W/m2 CLR
20:00 41 °F 33.3 °F 30.3 in NW 19.6 mph 20.4 mph 74 % 0 in 0.0 W/m2 CLR
20:05 40.8 °F 33.3 °F 30.3 in NW 21 mph 21 mph 74 % 0 in 0.0 W/m2 CLR
20:10 40.8 °F 33.4 °F 30.3 in NW 23 mph 23 mph 75 % 0 in 0.0 W/m2 CLR
20:15 40.6 °F 33.4 °F 30.3 in NW 24.2 mph 24.2 mph 75 % 0 in 0.0 W/m2 CLR
20:20 40.6 °F 33.3 °F 30.3 in NW 21.9 mph 21.9 mph 75 % 0 in 0.0 W/m2 CLR
20:25 40.5 °F 33.3 °F 30.3 in NW 18 mph 18 mph 75 % 0 in 0.0 W/m2 CLR
20:30 40.5 °F 33.4 °F 30.3 in NW 25.3 mph 25.3 mph 76 % 0 in 0.0 W/m2 CLR
20:35 40.3 °F 33.3 °F 30.3 in NW 20.7 mph 20.7 mph 76 % 0 in 0.0 W/m2 CLR
20:40 40.3 °F 33.3 °F 30.3 in NW 26.5 mph 26.5 mph 76 % 0 in 0.0 W/m2 CLR
20:45 40.3 °F 33.3 °F 30.3 in NW 24.2 mph 24.2 mph 76 % 0 in 0.0 W/m2 CLR
20:50 40.5 °F 33.4 °F 30.3 in NW 27 mph 27 mph 76 % 0 in 0.0 W/m2 CLR
20:55 40.3 °F 33.3 °F 30.3 in NW 20.7 mph 20.7 mph 76 % 0 in 0.0 W/m2 CLR
21:00 40.3 °F 33.3 °F 30.3 in NW 26 mph 26 mph 76 % 0 in 0.0 W/m2 CLR
21:05 40.1 °F 33.1 °F 30.3 in NW 20.7 mph 20.7 mph 76 % 0 in 0.0 W/m2 CLR
21:10 39.9 °F 32.9 °F 30.3 in NW 25.3 mph 25.3 mph 76 % 0 in 0.0 W/m2 CLR
21:15 39.9 °F 32.9 °F 30.3 in NW 20.7 mph 20.7 mph 76 % 0 in 0.0 W/m2 CLR
21:20 39.7 °F 33.1 °F 30.3 in NW 25.3 mph 25.3 mph 77 % 0 in 0.0 W/m2 CLR
21:25 39.7 °F 32.7 °F 30.3 in NW 18.4 mph 18.4 mph 76 % 0 in 0.0 W/m2 CLR
21:30 39.6 °F 33.1 °F 30.3 in NW 18.4 mph 18.4 mph 77 % 0 in 0.0 W/m2 CLR
21:35 39.6 °F 32.9 °F 30.3 in NW 13.8 mph 13.8 mph 77 % 0 in 0.0 W/m2 CLR
21:40 39.6 °F 33.1 °F 30.3 in NW 21.9 mph 21.9 mph 77 % 0 in 0.0 W/m2 CLR
21:45 39.6 °F 32.5 °F 30.3 in NW 16.1 mph 16.1 mph 76 % 0 in 0.0 W/m2 CLR
21:50 39.4 °F 32.7 °F 30.3 in NW 15 mph 15 mph 77 % 0 in 0.0 W/m2 CLR
21:55 39.4 °F 32.7 °F 30.3 in NW 18.4 mph 18.4 mph 77 % 0 in 0.0 W/m2 CLR
22:00 39.4 °F 32.7 °F 30.3 in WNW 16.1 mph 16.1 mph 77 % 0 in 0.0 W/m2 CLR
22:05 39.2 °F 32.5 °F 30.3 in WNW 18.4 mph 18.4 mph 77 % 0 in 0.0 W/m2 CLR
22:10 39.4 °F 32.7 °F 30.3 in NW 17.3 mph 17.3 mph 77 % 0 in 0.0 W/m2 CLR
22:15 39.4 °F 32.4 °F 30.3 in NW 17.3 mph 17.3 mph 76 % 0 in 0.0 W/m2 CLR
22:20 39.4 °F 32.5 °F 30.3 in NW 19.6 mph 19.6 mph 76 % 0 in 0.0 W/m2 CLR
22:25 39.4 °F 32.5 °F 30.3 in WNW 19.6 mph 19.6 mph 76 % 0 in 0.0 W/m2 CLR
22:31 39.6 °F 32.7 °F 30.3 in NW 18.4 mph 18.4 mph 76 % 0 in 0.0 W/m2 CLR
22:36 39.6 °F 32.4 °F 30.3 in NW 24.2 mph 24.2 mph 75 % 0 in 0.0 W/m2 CLR
22:41 39.7 °F 32.4 °F 30.3 in NW 26.5 mph 26.5 mph 75 % 0 in 0.0 W/m2 CLR
22:46 39.6 °F 32.7 °F 30.3 in NW 18.4 mph 18.4 mph 76 % 0 in 0.0 W/m2 CLR
22:50 39.6 °F 32.7 °F 30.3 in NW 26.5 mph 26.5 mph 76 % 0 in 0.0 W/m2 CLR
22:56 39.7 °F 32.7 °F 30.3 in NW 24.2 mph 24.2 mph 76 % 0 in 0.0 W/m2 CLR
23:00 39.7 °F 32.7 °F 30.3 in NW 19.6 mph 19.6 mph 76 % 0 in 0.0 W/m2 CLR
23:05 39.7 °F 32.7 °F 30.3 in NW 20.7 mph 20.7 mph 76 % 0 in 0.0 W/m2 CLR
23:11 39.7 °F 33.3 °F 30.3 in NW 21.9 mph 21.9 mph 77 % 0 in 0.0 W/m2 CLR
23:16 39.7 °F 33.1 °F 30.3 in NW 18.4 mph 18.4 mph 77 % 0 in 0.0 W/m2 CLR
23:21 39.6 °F 33.1 °F 30.3 in NW 20.7 mph 20.7 mph 77 % 0 in 0.0 W/m2 CLR
23:26 39.7 °F 33.1 °F 30.3 in NW 26.5 mph 26.5 mph 77 % 0 in 0.0 W/m2 CLR
23:31 39.7 °F 33.1 °F 30.3 in NW 21.9 mph 21.9 mph 77 % 0 in 0.0 W/m2 CLR
23:36 39.7 °F 33.1 °F 30.3 in NW 25.3 mph 25.3 mph 77 % 0 in 0.0 W/m2 CLR
23:41 39.6 °F 33.1 °F 30.3 in NW 24.2 mph 24.2 mph 77 % 0 in 0.0 W/m2 CLR
23:46 39.7 °F 33.4 °F 30.3 in NW 24.2 mph 24.2 mph 78 % 0 in 0.0 W/m2 CLR
23:51 39.7 °F 33.4 °F 30.3 in NW 20.7 mph 20.7 mph 78 % 0 in 0.0 W/m2 CLR
23:56 39.7 °F 33.4 °F 30.3 in NW 21.9 mph 21.9 mph 78 % 0 in 0.0 W/m2 CLR
Lo Temps de Massalio
Compliments of Weather Underground - 1.25 mb